Time;durP1;ratioP1;P1;durP2;ratioP2;P2;SDS_P1;SDS_P2;PMS_P1;PMS_P2;Temp;Humidity;BMP_temperature;BMP_pressure;BME280_temperature;BME280_humidity;BME280_pressure;Samples;Min_cycle;Max_cycle;Signal;HPM_P1;HPM_P2
2023/12/06 00:00:13;;;;;;;8.37;4.70;;;;;;;;;;5070580;27;87868;-58
2023/12/06 00:02:42;;;;;;;6.17;3.77;;;;;;;;;;5048814;27;87628;-58
2023/12/06 00:05:11;;;;;;;6.03;3.87;;;;;;;;;;5108226;27;87643;-58
2023/12/06 00:07:41;;;;;;;7.40;4.70;;;;;;;;;;5110088;27;88644;-58
2023/12/06 00:10:32;;;;;;;7.13;4.23;;;;;;;;;;5119822;27;88979;-58
2023/12/06 00:13:01;;;;;;;5.63;4.23;;;;;;;;;;5104910;27;87512;-58
2023/12/06 00:15:30;;;;;;;6.67;4.33;;;;;;;;;;5099981;27;87549;-58
2023/12/06 00:18:00;;;;;;;7.80;4.53;;;;;;;;;;5099030;27;88566;-58
2023/12/06 00:20:28;;;;;;;6.57;4.23;;;;;;;;;;5099594;27;88976;-58
2023/12/06 00:22:58;;;;;;;7.53;4.37;;;;;;;;;;5107433;27;87239;-59
2023/12/06 00:25:27;;;;;;;8.70;4.53;;;;;;;;;;5099740;27;87725;-58
2023/12/06 00:28:06;;;;;;;5.53;3.53;;;;;;;;;;5096390;27;89902;-58
2023/12/06 00:30:54;;;;;;;7.53;3.80;;;;;;;;;;5077866;27;87789;-58
2023/12/06 00:33:43;;;;;;;7.60;4.17;;;;;;;;;;5087274;27;87551;-59
2023/12/06 00:36:12;;;;;;;5.10;3.67;;;;;;;;;;5092361;27;87557;-58
2023/12/06 00:38:41;;;;;;;5.53;3.10;;;;;;;;;;5106108;27;88525;-58
2023/12/06 00:41:12;;;;;;;5.77;3.87;;;;;;;;;;5100099;27;87882;-58
2023/12/06 00:44:01;;;;;;;5.70;4.00;;;;;;;;;;5085675;27;87471;-58
2023/12/06 00:46:31;;;;;;;8.70;3.73;;;;;;;;;;5095080;27;87571;-58
2023/12/06 00:49:09;;;;;;;5.50;3.17;;;;;;;;;;5104606;27;89604;-58
2023/12/06 00:51:40;;;;;;;5.93;3.07;;;;;;;;;;5097172;27;87849;-58
2023/12/06 00:54:29;;;;;;;5.07;3.80;;;;;;;;;;5104186;27;87425;-58
2023/12/06 00:56:59;;;;;;;5.07;3.00;;;;;;;;;;5096918;27;87636;-58
2023/12/06 00:59:34;;;;;;;8.27;2.70;;;;;;;;;;5105786;27;88527;-58
2023/12/06 01:02:16;;;;;;;5.13;3.23;;;;;;;;;;5055366;27;88218;-58
2023/12/06 01:04:45;;;;;;;4.13;3.03;;;;;;;;;;5098927;27;88474;-58
2023/12/06 01:07:15;;;;;;;5.07;2.83;;;;;;;;;;5095570;27;87640;-58
2023/12/06 01:09:47;;;;;;;4.90;2.83;;;;;;;;;;5105755;27;89761;-59
2023/12/06 01:12:22;;;;;;;4.83;2.50;;;;;;;;;;5104772;27;89019;-58
2023/12/06 01:14:50;;;;;;;3.13;2.70;;;;;;;;;;5103899;27;87439;-59
2023/12/06 01:17:38;;;;;;;5.03;2.70;;;;;;;;;;5102495;27;87623;-58
2023/12/06 01:20:48;;;;;;;8.10;3.37;;;;;;;;;;5064256;27;88497;-59
2023/12/06 01:23:16;;;;;;;4.43;2.70;;;;;;;;;;5043514;28;89063;-59
2023/12/06 01:25:45;;;;;;;4.87;2.87;;;;;;;;;;5047911;27;87579;-59
2023/12/06 01:28:22;;;;;;;4.77;2.60;;;;;;;;;;5058811;27;87518;-59
2023/12/06 01:31:01;;;;;;;4.63;3.00;;;;;;;;;;5044198;27;89662;-58
2023/12/06 01:36:54;;;;;;;3.50;2.87;;;;;;;;;;4956927;28;87657;-58
2023/12/06 01:39:51;;;;;;;5.83;2.57;;;;;;;;;;4940803;28;87924;-58
2023/12/06 01:42:28;;;;;;;5.97;3.63;;;;;;;;;;4961578;28;89421;-59
2023/12/06 01:44:59;;;;;;;6.30;3.07;;;;;;;;;;5061751;27;87974;-58
2023/12/06 01:47:30;;;;;;;5.23;3.50;;;;;;;;;;5062783;27;87425;-58
2023/12/06 01:53:08;;;;;;;5.17;2.73;;;;;;;;;;4985535;27;88469;-58
2023/12/06 01:58:50;;;;;;;7.30;3.77;;;;;;;;;;5032285;27;87799;-58
2023/12/06 02:01:57;;;;;;;4.77;3.03;;;;;;;;;;5052911;27;87627;-59
2023/12/06 02:04:48;;;;;;;4.23;3.37;;;;;;;;;;4992109;28;89201;-58
2023/12/06 02:10:43;;;;;;;4.97;3.07;;;;;;;;;;5052234;27;87349;-58
2023/12/06 02:13:12;;;;;;;6.87;4.53;;;;;;;;;;5044434;27;87524;-58
2023/12/06 02:16:11;;;;;;;5.67;3.10;;;;;;;;;;5062370;27;88612;-58
2023/12/06 02:18:53;;;;;;;4.57;2.93;;;;;;;;;;5018816;27;88126;-58
2023/12/06 02:21:29;;;;;;;4.43;3.10;;;;;;;;;;5053712;27;87500;-58
2023/12/06 02:23:58;;;;;;;4.90;3.47;;;;;;;;;;5057386;27;87672;-58
2023/12/06 02:27:14;;;;;;;5.03;3.63;;;;;;;;;;5058107;27;88495;-58
2023/12/06 02:29:45;;;;;;;5.97;4.07;;;;;;;;;;5055777;27;89603;-58
2023/12/06 02:32:16;;;;;;;4.63;3.17;;;;;;;;;;5063513;27;87310;-59
2023/12/06 02:38:02;;;;;;;6.53;3.47;;;;;;;;;;4980142;28;89757;-58
2023/12/06 02:40:36;;;;;;;4.40;3.70;;;;;;;;;;4980540;28;88877;-58
2023/12/06 02:43:08;;;;;;;5.47;3.50;;;;;;;;;;5019448;27;87506;-58
2023/12/06 02:49:39;;;;;;;7.53;3.77;;;;;;;;;;5041136;28;87779;-58
2023/12/06 02:55:42;;;;;;;7.67;3.97;;;;;;;;;;5063161;27;87452;-58
2023/12/06 02:58:33;;;;;;;6.20;3.37;;;;;;;;;;4977323;27;87847;-58
2023/12/06 03:04:25;;;;;;;5.53;3.50;;;;;;;;;;5042319;27;88075;-58
2023/12/06 03:06:55;;;;;;;3.83;2.70;;;;;;;;;;5049002;27;87329;-58
2023/12/06 03:09:33;;;;;;;5.27;3.07;;;;;;;;;;5046496;27;87233;-58
2023/12/06 03:12:07;;;;;;;3.83;2.93;;;;;;;;;;5028477;27;87659;-58
2023/12/06 03:14:48;;;;;;;8.63;3.33;;;;;;;;;;5062192;27;87963;-58
2023/12/06 03:17:18;;;;;;;5.67;3.40;;;;;;;;;;5042754;27;87482;-58
2023/12/06 03:19:47;;;;;;;5.23;3.63;;;;;;;;;;5099179;27;87703;-58
2023/12/06 03:22:18;;;;;;;5.77;3.17;;;;;;;;;;5103098;27;88505;-58
2023/12/06 03:24:47;;;;;;;4.63;2.93;;;;;;;;;;5103809;27;88947;-58
2023/12/06 03:27:15;;;;;;;5.10;3.43;;;;;;;;;;5048215;27;87520;-58
2023/12/06 03:29:44;;;;;;;6.43;3.20;;;;;;;;;;5102887;27;88573;-58
2023/12/06 03:38:30;;;;;;;5.37;3.87;;;;;;;;;;5094016;27;87419;-58
2023/12/06 03:44:23;;;;;;;6.37;3.47;;;;;;;;;;5099319;27;87915;-58
2023/12/06 03:50:24;;;;;;;7.60;4.17;;;;;;;;;;5087032;27;87547;-58
2023/12/06 03:52:53;;;;;;;5.27;3.73;;;;;;;;;;5093258;27;87514;-58
2023/12/06 03:55:54;;;;;;;10.80;4.33;;;;;;;;;;5078837;27;88418;-58
2023/12/06 03:58:34;;;;;;;6.00;4.07;;;;;;;;;;5044789;27;88082;-58
2023/12/06 04:01:03;;;;;;;7.20;4.37;;;;;;;;;;5087548;27;89082;-58
2023/12/06 04:03:32;;;;;;;8.93;4.13;;;;;;;;;;5100378;27;87437;-58
2023/12/06 04:06:00;;;;;;;8.23;4.27;;;;;;;;;;5103406;27;89617;-58
2023/12/06 04:08:29;;;;;;;9.60;4.83;;;;;;;;;;5099314;27;90404;-58
2023/12/06 04:14:34;;;;;;;8.03;3.97;;;;;;;;;;5070191;27;87600;-58
2023/12/06 04:19:46;;;;;;;6.10;3.63;;;;;;;;;;5100798;27;88401;-58
2023/12/06 04:22:23;;;;;;;7.30;4.80;;;;;;;;;;5103087;27;87576;-58
2023/12/06 04:24:59;;;;;;;6.97;3.93;;;;;;;;;;5093672;27;87694;-58
2023/12/06 04:27:29;;;;;;;6.37;3.60;;;;;;;;;;5093488;27;88985;-58
2023/12/06 04:29:59;;;;;;;5.67;3.57;;;;;;;;;;5102526;27;88352;-58
2023/12/06 04:32:29;;;;;;;6.23;3.37;;;;;;;;;;5102731;27;87465;-59
2023/12/06 04:38:46;;;;;;;4.70;3.30;;;;;;;;;;4998414;28;87722;-58
2023/12/06 04:41:24;;;;;;;6.57;3.57;;;;;;;;;;4996271;28;87833;-57
2023/12/06 04:43:58;;;;;;;5.97;4.37;;;;;;;;;;5014459;27;87700;-60
2023/12/06 04:46:29;;;;;;;6.23;3.83;;;;;;;;;;5084515;27;87675;-62
2023/12/06 04:48:59;;;;;;;5.37;3.57;;;;;;;;;;5090143;27;90477;-59
2023/12/06 04:51:44;;;;;;;4.40;3.17;;;;;;;;;;5082107;27;87495;-63
2023/12/06 04:54:26;;;;;;;4.63;3.43;;;;;;;;;;5093193;27;87478;-61
2023/12/06 04:56:55;;;;;;;7.53;3.60;;;;;;;;;;5098227;27;87780;-58
2023/12/06 04:59:46;;;;;;;7.77;3.37;;;;;;;;;;5093228;27;89607;-62
2023/12/06 05:02:49;;;;;;;5.77;3.20;;;;;;;;;;5047662;27;87630;-63
2023/12/06 05:05:35;;;;;;;5.80;3.50;;;;;;;;;;5058427;27;87604;-62
2023/12/06 05:08:04;;;;;;;6.47;4.57;;;;;;;;;;5085760;27;88015;-62
2023/12/06 05:10:32;;;;;;;5.50;4.60;;;;;;;;;;5097884;27;88623;-61
2023/12/06 05:13:01;;;;;;;7.63;4.50;;;;;;;;;;5093217;27;88948;-61
2023/12/06 05:15:30;;;;;;;7.93;4.87;;;;;;;;;;5090867;27;87500;-60
2023/12/06 05:18:09;;;;;;;5.57;4.00;;;;;;;;;;5089269;27;87665;-60
2023/12/06 05:20:39;;;;;;;4.93;4.40;;;;;;;;;;5083721;27;88524;-61
2023/12/06 05:23:08;;;;;;;7.63;5.13;;;;;;;;;;5092026;27;89241;-60
2023/12/06 05:25:48;;;;;;;6.17;4.53;;;;;;;;;;5084414;27;87435;-59
2023/12/06 05:31:52;;;;;;;8.03;3.70;;;;;;;;;;5037298;27;88644;-59
2023/12/06 05:34:21;;;;;;;5.50;4.20;;;;;;;;;;5088814;27;87946;-59
2023/12/06 05:36:58;;;;;;;6.20;4.07;;;;;;;;;;5085532;27;87624;-60
2023/12/06 05:39:28;;;;;;;7.20;3.40;;;;;;;;;;5036231;27;87631;-59
2023/12/06 05:41:59;;;;;;;5.17;3.27;;;;;;;;;;5085096;27;88478;-59
2023/12/06 05:45:04;;;;;;;6.47;3.70;;;;;;;;;;5083492;27;88012;-60
2023/12/06 05:47:46;;;;;;;4.40;2.97;;;;;;;;;;4969874;28;87491;-60
2023/12/06 05:50:30;;;;;;;4.53;2.80;;;;;;;;;;4980998;28;87663;-59
2023/12/06 05:53:33;;;;;;;5.27;3.50;;;;;;;;;;5056966;27;89765;-60
2023/12/06 05:56:20;;;;;;;4.07;2.60;;;;;;;;;;5064223;27;89157;-60
2023/12/06 05:58:48;;;;;;;2.47;1.93;;;;;;;;;;5098422;27;87637;-59
2023/12/06 06:01:17;;;;;;;5.50;2.67;;;;;;;;;;5099736;27;87625;-60
2023/12/06 06:03:50;;;;;;;5.20;2.13;;;;;;;;;;5087043;27;89624;-60
2023/12/06 06:06:20;;;;;;;3.47;1.80;;;;;;;;;;5090051;27;88879;-61
2023/12/06 06:08:50;;;;;;;3.70;2.20;;;;;;;;;;5083395;27;87334;-60
2023/12/06 06:11:19;;;;;;;5.73;2.13;;;;;;;;;;5089638;27;88048;-61
2023/12/06 06:13:47;;;;;;;2.50;1.87;;;;;;;;;;5086227;27;88457;-60
2023/12/06 06:16:17;;;;;;;2.47;1.70;;;;;;;;;;5083951;27;89069;-60
2023/12/06 06:18:54;;;;;;;2.77;2.10;;;;;;;;;;5030537;27;87633;-60
2023/12/06 06:25:08;;;;;;;2.27;1.60;;;;;;;;;;5096166;27;88004;-61
2023/12/06 06:27:36;;;;;;;3.03;2.13;;;;;;;;;;5091886;27;88893;-61
2023/12/06 06:30:05;;;;;;;4.57;2.07;;;;;;;;;;5096524;27;87362;-61
2023/12/06 06:32:34;;;;;;;5.67;2.03;;;;;;;;;;5088526;27;87638;-61
2023/12/06 06:35:02;;;;;;;2.47;1.40;;;;;;;;;;5083155;27;89573;-62
2023/12/06 06:37:31;;;;;;;2.57;1.47;;;;;;;;;;5097302;27;89089;-61
2023/12/06 06:39:59;;;;;;;3.17;1.73;;;;;;;;;;5085402;27;87579;-62
2023/12/06 06:42:40;;;;;;;1.90;1.70;;;;;;;;;;5089904;27;87717;-61
2023/12/06 06:45:26;;;;;;;2.47;1.60;;;;;;;;;;5054673;27;87827;-61
2023/12/06 06:47:55;;;;;;;1.87;1.67;;;;;;;;;;5086557;27;87649;-61
2023/12/06 06:50:23;;;;;;;1.53;1.40;;;;;;;;;;5092412;27;87546;-61
2023/12/06 06:52:52;;;;;;;1.90;1.53;;;;;;;;;;5101255;27;87540;-61
2023/12/06 06:58:54;;;;;;;1.50;1.20;;;;;;;;;;5084094;27;87446;-61
2023/12/06 07:01:22;;;;;;;3.67;1.50;;;;;;;;;;5092261;27;87487;-60
2023/12/06 07:03:51;;;;;;;2.50;1.93;;;;;;;;;;5084821;27;87663;-61
2023/12/06 07:06:20;;;;;;;1.53;1.43;;;;;;;;;;5086278;27;88453;-61
2023/12/06 07:08:49;;;;;;;1.20;1.10;;;;;;;;;;5085546;27;89129;-62
2023/12/06 07:11:18;;;;;;;1.27;1.13;;;;;;;;;;5083088;27;87634;-61
2023/12/06 07:13:46;;;;;;;1.77;1.00;;;;;;;;;;5091222;27;87629;-61
2023/12/06 07:16:29;;;;;;;1.40;1.30;;;;;;;;;;5090357;27;89602;-59
2023/12/06 07:18:57;;;;;;;2.60;1.50;;;;;;;;;;5099482;27;88003;-61
2023/12/06 07:21:26;;;;;;;2.90;1.23;;;;;;;;;;5090894;27;87690;-61
2023/12/06 07:23:55;;;;;;;2.50;1.43;;;;;;;;;;5103910;27;87627;-63
2023/12/06 07:29:46;;;;;;;1.17;1.07;;;;;;;;;;5084878;27;88842;-62
2023/12/06 07:32:15;;;;;;;1.30;1.13;;;;;;;;;;5098842;27;87421;-60
2023/12/06 07:34:44;;;;;;;2.93;1.57;;;;;;;;;;5092396;27;87632;-62
2023/12/06 07:37:20;;;;;;;1.30;1.00;;;;;;;;;;5092771;27;89803;-62
2023/12/06 07:39:49;;;;;;;1.10;1.00;;;;;;;;;;5105582;27;87974;-61
2023/12/06 07:42:19;;;;;;;2.47;1.10;;;;;;;;;;5099364;27;87582;-60
2023/12/06 07:44:47;;;;;;;1.10;1.00;;;;;;;;;;5093217;27;87702;-60
2023/12/06 07:47:17;;;;;;;1.53;1.00;;;;;;;;;;5090160;27;88327;-58
2023/12/06 07:49:46;;;;;;;3.07;2.07;;;;;;;;;;5089560;27;88037;-58
2023/12/06 07:52:15;;;;;;;4.20;1.30;;;;;;;;;;5097058;27;87415;-58
2023/12/06 08:01:31;;;;;;;2.37;1.73;;;;;;;;;;5025607;22;87853;-58
2023/12/06 08:04:01;;;;;;;2.50;1.70;;;;;;;;;;4982804;28;87485;-58
2023/12/06 08:06:30;;;;;;;4.53;1.90;;;;;;;;;;4981865;28;88372;-58
2023/12/06 08:09:00;;;;;;;2.90;1.77;;;;;;;;;;4971423;28;87998;-58
2023/12/06 08:11:29;;;;;;;1.50;1.40;;;;;;;;;;4981147;28;89149;-58
2023/12/06 08:13:58;;;;;;;2.10;1.90;;;;;;;;;;4981577;28;87581;-58
2023/12/06 08:16:27;;;;;;;2.87;2.13;;;;;;;;;;4977401;28;87537;-58
2023/12/06 08:18:56;;;;;;;3.93;1.73;;;;;;;;;;4970312;28;88317;-59
2023/12/06 08:21:26;;;;;;;3.53;2.10;;;;;;;;;;4969905;28;88249;-58
2023/12/06 08:23:55;;;;;;;2.77;1.97;;;;;;;;;;4977939;28;87335;-58
2023/12/06 08:26:23;;;;;;;5.23;2.57;;;;;;;;;;4983058;28;87464;-58
2023/12/06 08:28:52;;;;;;;2.77;2.20;;;;;;;;;;4976581;28;88159;-59
2023/12/06 08:31:21;;;;;;;6.03;2.40;;;;;;;;;;4977161;28;88035;-58
2023/12/06 08:33:49;;;;;;;2.20;1.77;;;;;;;;;;4983820;28;88650;-58
2023/12/06 08:36:18;;;;;;;3.33;2.53;;;;;;;;;;4973712;28;87879;-61
2023/12/06 08:38:48;;;;;;;4.20;1.87;;;;;;;;;;4977819;28;88548;-59
2023/12/06 08:41:16;;;;;;;2.63;2.10;;;;;;;;;;4968060;28;88127;-59
2023/12/06 08:43:45;;;;;;;3.73;2.80;;;;;;;;;;4969986;28;87341;-58
2023/12/06 08:46:13;;;;;;;4.70;2.60;;;;;;;;;;4982748;28;87410;-58
2023/12/06 08:48:42;;;;;;;3.27;2.33;;;;;;;;;;4986179;28;88553;-60
2023/12/06 08:51:11;;;;;;;3.50;3.07;;;;;;;;;;4965541;28;87883;-58
2023/12/06 08:53:39;;;;;;;3.53;2.90;;;;;;;;;;4980461;28;88454;-62
2023/12/06 08:56:10;;;;;;;4.23;3.30;;;;;;;;;;4965428;28;87693;-60
2023/12/06 08:58:40;;;;;;;6.07;3.63;;;;;;;;;;4963701;28;89592;-61
2023/12/06 09:01:08;;;;;;;6.00;3.10;;;;;;;;;;4979574;28;87973;-66
2023/12/06 09:03:37;;;;;;;4.87;2.87;;;;;;;;;;4974512;28;87827;-63
2023/12/06 09:06:05;;;;;;;8.97;3.50;;;;;;;;;;4970498;28;87632;-63
2023/12/06 09:08:37;;;;;;;7.43;3.80;;;;;;;;;;4968036;28;89600;-62
2023/12/06 09:11:05;;;;;;;6.83;4.07;;;;;;;;;;4974301;28;87583;-61
2023/12/06 09:13:35;;;;;;;7.37;3.83;;;;;;;;;;4974799;28;87527;-61
2023/12/06 09:16:04;;;;;;;6.20;4.57;;;;;;;;;;4963161;28;87538;-62
2023/12/06 09:18:33;;;;;;;5.80;3.60;;;;;;;;;;4965311;28;87867;-61
2023/12/06 09:21:04;;;;;;;7.97;4.37;;;;;;;;;;4969211;28;87546;-61
2023/12/06 09:23:33;;;;;;;7.20;3.67;;;;;;;;;;4968589;28;87559;-61
2023/12/06 09:26:02;;;;;;;5.93;3.80;;;;;;;;;;4977144;28;88144;-62
2023/12/06 09:28:30;;;;;;;6.47;3.77;;;;;;;;;;4974383;28;88711;-62
2023/12/06 09:31:01;;;;;;;7.60;3.90;;;;;;;;;;4973720;28;88192;-63
2023/12/06 09:33:29;;;;;;;18.90;4.20;;;;;;;;;;4964262;28;87505;-62
2023/12/06 09:35:58;;;;;;;6.70;4.23;;;;;;;;;;4965624;28;88803;-62
2023/12/06 09:38:27;;;;;;;8.70;4.47;;;;;;;;;;4965670;28;88575;-62
2023/12/06 09:40:57;;;;;;;6.47;4.13;;;;;;;;;;4974658;28;89039;-62
2023/12/06 09:43:26;;;;;;;5.63;4.13;;;;;;;;;;4965397;28;87562;-62
2023/12/06 09:45:54;;;;;;;6.63;4.33;;;;;;;;;;4974360;28;87248;-62
2023/12/06 09:48:24;;;;;;;7.90;4.70;;;;;;;;;;4965813;28;88229;-62
2023/12/06 09:50:53;;;;;;;6.50;4.53;;;;;;;;;;4977283;28;88319;-61
2023/12/06 09:53:22;;;;;;;5.13;3.93;;;;;;;;;;4973717;28;88231;-61
2023/12/06 09:55:55;;;;;;;5.67;4.33;;;;;;;;;;4977104;28;87803;-61
2023/12/06 09:58:23;;;;;;;5.47;3.73;;;;;;;;;;4967421;28;88654;-62
2023/12/06 10:00:54;;;;;;;5.83;3.77;;;;;;;;;;4966170;28;88135;-64
2023/12/06 10:03:25;;;;;;;7.63;4.47;;;;;;;;;;4973435;28;87337;-64
2023/12/06 10:05:56;;;;;;;5.60;3.20;;;;;;;;;;4966960;28;87626;-67
2023/12/06 10:08:24;;;;;;;6.30;4.10;;;;;;;;;;4968785;28;88413;-59
2023/12/06 10:11:00;;;;;;;5.07;3.20;;;;;;;;;;4974990;28;88347;-59
2023/12/06 10:13:32;;;;;;;4.70;3.83;;;;;;;;;;4967062;28;87390;-59
2023/12/06 10:16:01;;;;;;;6.43;3.57;;;;;;;;;;4966689;28;87601;-59
2023/12/06 10:18:31;;;;;;;5.47;3.00;;;;;;;;;;4972733;28;89833;-60
2023/12/06 10:21:00;;;;;;;6.23;3.47;;;;;;;;;;4974598;28;89887;-60
2023/12/06 10:23:30;;;;;;;7.47;3.50;;;;;;;;;;4972965;28;89139;-60
2023/12/06 10:25:59;;;;;;;4.10;2.97;;;;;;;;;;4973882;28;87658;-57
2023/12/06 10:28:27;;;;;;;9.83;3.73;;;;;;;;;;4969553;28;88441;-60
2023/12/06 10:31:00;;;;;;;7.70;3.53;;;;;;;;;;4979439;28;87973;-66
2023/12/06 10:33:30;;;;;;;9.80;4.03;;;;;;;;;;4976509;28;87440;-62
2023/12/06 10:35:59;;;;;;;5.23;3.37;;;;;;;;;;4961253;28;87303;-62
2023/12/06 10:38:28;;;;;;;4.10;2.80;;;;;;;;;;4961646;28;89712;-62
2023/12/06 10:40:58;;;;;;;4.10;2.73;;;;;;;;;;4962215;28;88210;-62
2023/12/06 10:43:26;;;;;;;5.33;3.13;;;;;;;;;;4962327;28;87657;-62
2023/12/06 10:45:56;;;;;;;5.93;3.40;;;;;;;;;;4964186;28;87684;-63
2023/12/06 10:48:25;;;;;;;5.13;3.33;;;;;;;;;;4966836;28;87557;-62
2023/12/06 10:50:57;;;;;;;3.37;2.80;;;;;;;;;;4974931;28;89092;-62
2023/12/06 10:53:25;;;;;;;3.90;2.93;;;;;;;;;;4981623;28;87483;-61
2023/12/06 10:55:54;;;;;;;5.50;2.90;;;;;;;;;;4981558;28;87653;-62
2023/12/06 10:58:22;;;;;;;3.60;2.53;;;;;;;;;;4981707;28;89582;-61
2023/12/06 11:00:51;;;;;;;4.13;3.33;;;;;;;;;;4980980;28;88005;-62
2023/12/06 11:03:20;;;;;;;3.87;2.20;;;;;;;;;;4970259;28;87622;-62
2023/12/06 11:05:51;;;;;;;3.43;2.63;;;;;;;;;;4970672;28;87687;-63
2023/12/06 11:08:38;;;;;;;1.93;1.73;;;;;;;;;;4967003;28;89570;-62
2023/12/06 11:11:11;;;;;;;3.57;2.63;;;;;;;;;;4972208;28;88964;-62
2023/12/06 11:13:43;;;;;;;2.90;1.90;;;;;;;;;;4979885;28;87913;-60
2023/12/06 11:16:13;;;;;;;2.97;2.20;;;;;;;;;;4971935;28;87621;-63
2023/12/06 11:18:45;;;;;;;3.83;2.20;;;;;;;;;;4972093;28;89689;-61
2023/12/06 11:21:14;;;;;;;2.47;2.07;;;;;;;;;;4979321;28;89012;-61
2023/12/06 11:23:44;;;;;;;2.47;1.97;;;;;;;;;;4966990;28;87494;-62
2023/12/06 11:26:13;;;;;;;3.27;2.17;;;;;;;;;;4977827;28;87571;-62
2023/12/06 11:28:42;;;;;;;4.23;1.80;;;;;;;;;;4966956;28;88530;-62
2023/12/06 11:31:13;;;;;;;2.23;1.87;;;;;;;;;;4980337;28;88235;-61
2023/12/06 11:33:41;;;;;;;1.93;1.73;;;;;;;;;;4974283;28;87465;-61
2023/12/06 11:36:16;;;;;;;2.17;1.60;;;;;;;;;;4979898;28;87527;-60
2023/12/06 11:38:46;;;;;;;2.13;1.50;;;;;;;;;;4979967;28;88474;-57
2023/12/06 11:41:14;;;;;;;2.50;1.90;;;;;;;;;;4981053;28;89561;-58
2023/12/06 11:43:47;;;;;;;3.07;1.77;;;;;;;;;;4980732;28;87476;-59
2023/12/06 11:46:16;;;;;;;2.57;1.83;;;;;;;;;;4983217;28;87461;-64
2023/12/06 11:48:46;;;;;;;3.03;1.87;;;;;;;;;;4968213;28;88569;-61
2023/12/06 11:51:19;;;;;;;2.10;1.50;;;;;;;;;;4971398;28;89137;-62
2023/12/06 11:53:50;;;;;;;2.17;1.50;;;;;;;;;;4972720;28;87459;-63
2023/12/06 11:56:22;;;;;;;2.03;1.70;;;;;;;;;;4977438;28;87685;-60
2023/12/06 11:58:51;;;;;;;7.27;2.00;;;;;;;;;;4975057;28;88649;-60
2023/12/06 12:01:19;;;;;;;2.13;1.40;;;;;;;;;;4976509;28;87790;-63
2023/12/06 12:03:48;;;;;;;6.47;2.50;;;;;;;;;;4971933;28;87542;-59
2023/12/06 12:06:17;;;;;;;4.13;1.93;;;;;;;;;;4963362;28;87603;-59
2023/12/06 12:08:47;;;;;;;2.80;1.70;;;;;;;;;;4978544;28;89711;-59
2023/12/06 12:11:17;;;;;;;2.10;1.47;;;;;;;;;;4978099;28;87992;-59
2023/12/06 12:13:47;;;;;;;1.97;1.60;;;;;;;;;;4968842;28;87559;-59
2023/12/06 12:18:41;;;;;;;3.87;1.43;;;;;;;;;;4973162;22;95331;-55
2023/12/06 12:21:16;;;;;;;4.40;1.70;;;;;;;;;;4964660;28;88358;-55
2023/12/06 12:23:44;;;;;;;2.73;1.67;;;;;;;;;;4981175;28;87540;-55
2023/12/06 12:26:18;;;;;;;2.83;1.20;;;;;;;;;;5001555;28;87651;-56
2023/12/06 12:28:47;;;;;;;1.27;1.17;;;;;;;;;;5001450;28;88552;-56
2023/12/06 12:31:17;;;;;;;1.93;1.50;;;;;;;;;;4998807;28;89070;-55
2023/12/06 12:33:46;;;;;;;3.30;1.10;;;;;;;;;;4999041;28;87573;-56
2023/12/06 12:36:24;;;;;;;2.33;0.93;;;;;;;;;;4990966;28;87505;-57
2023/12/06 12:38:58;;;;;;;1.43;1.23;;;;;;;;;;5000165;28;89630;-56
2023/12/06 12:41:28;;;;;;;4.37;0.87;;;;;;;;;;5000504;28;88926;-57
2023/12/06 12:47:32;;;;;;;0.60;0.60;;;;;;;;;;4998605;28;87582;-59
2023/12/06 12:50:01;;;;;;;1.40;0.97;;;;;;;;;;4999899;28;89833;-57
2023/12/06 12:52:31;;;;;;;2.77;0.93;;;;;;;;;;5000931;28;88407;-58
2023/12/06 12:55:00;;;;;;;4.77;1.20;;;;;;;;;;5000138;28;87448;-57
2023/12/06 12:57:35;;;;;;;1.30;1.20;;;;;;;;;;4965193;28;87656;-58
2023/12/06 13:00:09;;;;;;;1.87;1.27;;;;;;;;;;4997675;28;88600;-56
2023/12/06 13:02:48;;;;;;;4.43;1.20;;;;;;;;;;4957183;28;89135;-56
2023/12/06 13:05:16;;;;;;;4.00;1.20;;;;;;;;;;4997092;28;89847;-56
2023/12/06 13:11:20;;;;;;;1.00;0.80;;;;;;;;;;4990667;28;87802;-56
2023/12/06 13:13:50;;;;;;;1.93;0.73;;;;;;;;;;4999878;28;89222;-55
2023/12/06 13:16:29;;;;;;;3.80;1.20;;;;;;;;;;4999322;28;87585;-55
2023/12/06 13:18:57;;;;;;;1.20;0.70;;;;;;;;;;4999370;28;87646;-55
2023/12/06 13:21:29;;;;;;;1.10;0.90;;;;;;;;;;4998993;28;89776;-55
2023/12/06 13:23:57;;;;;;;1.63;1.10;;;;;;;;;;4994094;28;89077;-55
2023/12/06 13:26:26;;;;;;;2.90;1.40;;;;;;;;;;4999462;28;87448;-55
2023/12/06 13:28:56;;;;;;;1.23;1.13;;;;;;;;;;4999552;28;87631;-55
2023/12/06 13:31:25;;;;;;;2.03;1.00;;;;;;;;;;4998814;28;88598;-55
2023/12/06 13:33:53;;;;;;;2.40;1.17;;;;;;;;;;4999779;28;88504;-55
2023/12/06 13:39:56;;;;;;;1.80;1.10;;;;;;;;;;4996552;28;87906;-54
2023/12/06 13:42:42;;;;;;;1.40;1.00;;;;;;;;;;4999355;28;88384;-54
2023/12/06 13:45:13;;;;;;;2.10;0.97;;;;;;;;;;4983866;28;88960;-54
2023/12/06 13:47:42;;;;;;;1.97;0.83;;;;;;;;;;4993147;28;87629;-53
2023/12/06 13:50:11;;;;;;;1.10;0.90;;;;;;;;;;4996718;28;87641;-54
2023/12/06 13:52:39;;;;;;;1.63;1.10;;;;;;;;;;4999589;28;88672;-54
2023/12/06 13:55:08;;;;;;;1.90;1.07;;;;;;;;;;4996078;28;88094;-53
2023/12/06 13:57:37;;;;;;;1.93;1.00;;;;;;;;;;4991550;28;87712;-53
2023/12/06 14:00:08;;;;;;;1.53;1.43;;;;;;;;;;4992685;28;87683;-54
2023/12/06 14:02:38;;;;;;;1.73;0.97;;;;;;;;;;4983175;28;87971;-54
2023/12/06 14:14:36;;;;;;;1.30;1.00;;;;;;;;;;4996571;28;88295;-54
2023/12/06 14:17:05;;;;;;;1.07;0.97;;;;;;;;;;4998502;28;88046;-53
2023/12/06 14:19:50;;;;;;;1.17;1.07;;;;;;;;;;4998599;28;87548;-53
2023/12/06 14:22:18;;;;;;;8.10;1.10;;;;;;;;;;4999273;28;87693;-53
2023/12/06 14:24:47;;;;;;;2.50;0.70;;;;;;;;;;4998779;28;88736;-53
2023/12/06 14:30:38;;;;;;;1.10;0.50;;;;;;;;;;4992041;28;90072;-54
2023/12/06 14:33:07;;;;;;;1.13;0.67;;;;;;;;;;4998687;28;87751;-54
2023/12/06 14:39:11;;;;;;;0.93;0.80;;;;;;;;;;4985352;28;88053;-53
2023/12/06 14:41:42;;;;;;;1.20;0.77;;;;;;;;;;4998763;28;87594;-53
2023/12/06 14:44:10;;;;;;;1.20;0.83;;;;;;;;;;4998809;28;88440;-53
2023/12/06 14:46:39;;;;;;;1.13;0.97;;;;;;;;;;4994605;28;88484;-53
2023/12/06 14:49:09;;;;;;;0.83;0.70;;;;;;;;;;4991463;28;89349;-53
2023/12/06 14:55:00;;;;;;;3.30;1.20;;;;;;;;;;4973945;28;87895;-54
2023/12/06 14:57:28;;;;;;;1.40;0.93;;;;;;;;;;4947067;28;88231;-53
2023/12/06 14:59:57;;;;;;;1.83;0.80;;;;;;;;;;4998414;28;88007;-54
2023/12/06 15:02:32;;;;;;;0.70;0.70;;;;;;;;;;4999034;28;87966;-53
2023/12/06 15:05:00;;;;;;;1.00;0.73;;;;;;;;;;4998793;28;87635;-53
2023/12/06 15:07:29;;;;;;;1.37;0.70;;;;;;;;;;4992951;28;88174;-53
2023/12/06 15:10:00;;;;;;;1.70;0.90;;;;;;;;;;4998337;28;88617;-54
2023/12/06 15:12:45;;;;;;;0.77;0.67;;;;;;;;;;4997854;28;87489;-54
2023/12/06 15:15:14;;;;;;;1.60;1.00;;;;;;;;;;4998166;28;87648;-53
2023/12/06 15:17:43;;;;;;;0.67;0.67;;;;;;;;;;4998186;28;88081;-53
2023/12/06 15:23:57;;;;;;;1.00;0.80;;;;;;;;;;4876260;28;87555;-54
2023/12/06 15:26:26;;;;;;;1.07;0.77;;;;;;;;;;4921110;28;87629;-52
2023/12/06 15:29:27;;;;;;;1.90;0.95;;;;;;;;;;5005291;22;89875;-71
2023/12/06 15:31:55;;;;;;;5.40;0.93;;;;;;;;;;4994422;28;89084;-71
2023/12/06 15:37:39;;;;;;;0.80;0.80;;;;;;;;;;4998247;28;87631;-69
2023/12/06 15:40:11;;;;;;;0.60;0.60;;;;;;;;;;4995034;28;89657;-70
2023/12/06 15:42:41;;;;;;;0.90;0.80;;;;;;;;;;5001703;28;88966;-71
2023/12/06 15:45:10;;;;;;;1.77;0.57;;;;;;;;;;4997713;28;87855;-70
2023/12/06 15:47:38;;;;;;;1.07;0.90;;;;;;;;;;4997612;28;87678;-71
2023/12/06 15:50:09;;;;;;;1.67;0.60;;;;;;;;;;4998676;28;89629;-70
2023/12/06 15:52:37;;;;;;;1.50;1.10;;;;;;;;;;5011453;28;89164;-70
2023/12/06 15:55:07;;;;;;;2.73;1.07;;;;;;;;;;5006094;28;87407;-70
2023/12/06 15:57:35;;;;;;;1.60;0.80;;;;;;;;;;4997698;28;87902;-70
2023/12/06 16:00:17;;;;;;;1.27;0.90;;;;;;;;;;4955297;28;88881;-70
2023/12/06 16:05:54;;;;;;;0.87;0.77;;;;;;;;;;5005110;28;87445;-63
2023/12/06 16:11:47;;;;;;;3.53;1.20;;;;;;;;;;5008051;28;89672;-63
2023/12/06 16:14:16;;;;;;;1.97;1.00;;;;;;;;;;5010016;28;89195;-63
2023/12/06 16:20:18;;;;;;;1.77;1.20;;;;;;;;;;4983347;28;87998;-63
2023/12/06 16:22:46;;;;;;;4.27;1.10;;;;;;;;;;5004008;28;88427;-63
2023/12/06 16:25:28;;;;;;;2.50;1.40;;;;;;;;;;4993529;28;87609;-64
2023/12/06 16:28:07;;;;;;;3.43;1.80;;;;;;;;;;5009744;28;87423;-63
2023/12/06 16:30:36;;;;;;;4.53;1.80;;;;;;;;;;5008176;28;88035;-63
2023/12/06 16:33:05;;;;;;;2.80;1.77;;;;;;;;;;5014374;28;89647;-63
2023/12/06 16:35:44;;;;;;;4.13;1.87;;;;;;;;;;5011442;28;89057;-64
2023/12/06 16:38:12;;;;;;;3.27;2.00;;;;;;;;;;4984797;28;87517;-62
2023/12/06 16:40:41;;;;;;;4.13;2.27;;;;;;;;;;4999888;28;87612;-63
2023/12/06 16:43:11;;;;;;;4.13;2.20;;;;;;;;;;5000458;28;89722;-63
2023/12/06 16:52:27;;;;;;;3.60;2.70;;;;;;;;;;4984617;28;87553;-68
2023/12/06 16:58:14;;;;;;;2.87;2.10;;;;;;;;;;4985116;28;87977;-72
2023/12/06 17:00:43;;;;;;;3.90;2.07;;;;;;;;;;4997251;28;87497;-66
2023/12/06 17:03:11;;;;;;;4.50;2.73;;;;;;;;;;4999578;28;87834;-68
2023/12/06 17:05:40;;;;;;;3.77;2.33;;;;;;;;;;4999993;28;89632;-70
2023/12/06 17:08:10;;;;;;;9.33;3.40;;;;;;;;;;4998132;28;89448;-72
2023/12/06 17:10:38;;;;;;;5.07;2.87;;;;;;;;;;5004080;28;87557;-71
2023/12/06 17:13:07;;;;;;;5.40;2.80;;;;;;;;;;5000476;28;87715;-70
2023/12/06 17:15:35;;;;;;;5.00;2.63;;;;;;;;;;4996816;28;89675;-70
2023/12/06 17:18:32;;;;;;;5.10;2.40;;;;;;;;;;4999925;28;91364;-67
2023/12/06 17:21:01;;;;;;;6.43;2.93;;;;;;;;;;5000640;28;88011;-71
2023/12/06 17:23:31;;;;;;;4.63;3.23;;;;;;;;;;4999858;28;88939;-72